Terminal Aerodrome Forecast
Issued by NWS

Home | Current Version | Previous Version | Text Only | Print | Product List | Glossary On
Versions: 1 2 3 4 5 6 7 8 9 10 11 12 13 14 15 16 17 18 19 20 21 22 23 24
000
FTUS43 KMKX 232037 AAC
TAFENW
TAF AMD
KENW 232037Z 2321/2418 15013G22KT P6SM BKN050
      TEMPO 2323/2402 P6SM -SHRA BKN025
     FM240600 19008KT P6SM BKN050 WS020/21045KT
     FM240800 20009KT P6SM SCT070 WS020/22045KT
     FM241400 21011G20KT P6SM SCT060=

USA.gov is the U.S. government's official web portal to all federal, state and local government web resources and services.